sensor_id;sensor_type;location;lat;lon;timestamp;pressure;altitude;pressure_sealevel;temperature;humidity
8061;BME280;4073;42.626;25.386;2022-07-06T00:00:25;97102.66;;;22.06;71.94
8061;BME280;4073;42.626;25.386;2022-07-06T00:02:50;97092.66;;;22.10;71.60
8061;BME280;4073;42.626;25.386;2022-07-06T00:05:16;97096.53;;;22.09;71.72
8061;BME280;4073;42.626;25.386;2022-07-06T00:07:41;97094.69;;;22.13;71.51
8061;BME280;4073;42.626;25.386;2022-07-06T00:10:07;97082.16;;;22.08;71.76
8061;BME280;4073;42.626;25.386;2022-07-06T00:12:33;97087.06;;;22.18;71.74
8061;BME280;4073;42.626;25.386;2022-07-06T00:14:58;97078.31;;;22.25;71.62
8061;BME280;4073;42.626;25.386;2022-07-06T00:17:24;97084.56;;;22.25;71.89
8061;BME280;4073;42.626;25.386;2022-07-06T00:19:49;97084.63;;;22.29;72.72
8061;BME280;4073;42.626;25.386;2022-07-06T00:22:15;97087.91;;;22.34;73.26
8061;BME280;4073;42.626;25.386;2022-07-06T00:24:40;97085.28;;;22.38;75.21
8061;BME280;4073;42.626;25.386;2022-07-06T00:27:06;97078.56;;;22.35;75.79
8061;BME280;4073;42.626;25.386;2022-07-06T00:29:31;97084.03;;;22.35;75.80
8061;BME280;4073;42.626;25.386;2022-07-06T00:31:57;97076.31;;;22.37;75.75
8061;BME280;4073;42.626;25.386;2022-07-06T00:34:23;97066.97;;;22.38;75.42
8061;BME280;4073;42.626;25.386;2022-07-06T00:36:48;97067.78;;;22.39;75.55
8061;BME280;4073;42.626;25.386;2022-07-06T00:39:13;97069.28;;;22.36;75.85
8061;BME280;4073;42.626;25.386;2022-07-06T00:41:39;97067.84;;;22.27;75.08
8061;BME280;4073;42.626;25.386;2022-07-06T00:44:07;97068.25;;;22.13;75.02
8061;BME280;4073;42.626;25.386;2022-07-06T00:46:34;97066.31;;;21.98;75.06
8061;BME280;4073;42.626;25.386;2022-07-06T00:48:59;97063.50;;;21.83;76.80
8061;BME280;4073;42.626;25.386;2022-07-06T00:51:31;97065.16;;;21.60;79.78
8061;BME280;4073;42.626;25.386;2022-07-06T00:53:59;97064.41;;;21.47;81.28
8061;BME280;4073;42.626;25.386;2022-07-06T00:56:26;97060.81;;;21.31;82.74
8061;BME280;4073;42.626;25.386;2022-07-06T00:58:54;97054.34;;;21.24;83.33
8061;BME280;4073;42.626;25.386;2022-07-06T01:01:19;97049.25;;;21.22;84.04
8061;BME280;4073;42.626;25.386;2022-07-06T01:03:44;97046.88;;;21.21;83.59
8061;BME280;4073;42.626;25.386;2022-07-06T01:06:10;97039.19;;;21.11;83.36
8061;BME280;4073;42.626;25.386;2022-07-06T01:08:36;97031.16;;;21.02;83.29
8061;BME280;4073;42.626;25.386;2022-07-06T01:11:02;97035.69;;;20.98;83.65
8061;BME280;4073;42.626;25.386;2022-07-06T01:13:31;97033.41;;;20.88;83.97
8061;BME280;4073;42.626;25.386;2022-07-06T01:15:58;97041.81;;;20.83;84.62
8061;BME280;4073;42.626;25.386;2022-07-06T01:18:23;97034.09;;;20.73;85.08
8061;BME280;4073;42.626;25.386;2022-07-06T01:20:49;97032.41;;;20.69;85.17
8061;BME280;4073;42.626;25.386;2022-07-06T01:23:15;97029.78;;;20.60;86.04
8061;BME280;4073;42.626;25.386;2022-07-06T01:25:40;97021.31;;;20.62;85.75
8061;BME280;4073;42.626;25.386;2022-07-06T01:28:06;97025.03;;;20.57;85.77
8061;BME280;4073;42.626;25.386;2022-07-06T01:30:31;97027.41;;;20.59;85.81
8061;BME280;4073;42.626;25.386;2022-07-06T01:32:57;97024.69;;;20.59;85.69
8061;BME280;4073;42.626;25.386;2022-07-06T01:35:24;97026.28;;;20.60;85.39
8061;BME280;4073;42.626;25.386;2022-07-06T01:37:50;97020.28;;;20.66;85.24
8061;BME280;4073;42.626;25.386;2022-07-06T01:40:16;97021.53;;;20.69;85.53
8061;BME280;4073;42.626;25.386;2022-07-06T01:42:41;97014.75;;;20.75;85.22
8061;BME280;4073;42.626;25.386;2022-07-06T01:45:07;97016.44;;;20.79;85.75
8061;BME280;4073;42.626;25.386;2022-07-06T01:47:33;97019.03;;;20.76;85.93
8061;BME280;4073;42.626;25.386;2022-07-06T01:50:00;97011.00;;;20.79;86.30
8061;BME280;4073;42.626;25.386;2022-07-06T01:52:27;97010.09;;;20.75;85.93
8061;BME280;4073;42.626;25.386;2022-07-06T01:54:53;97015.31;;;20.80;86.56
8061;BME280;4073;42.626;25.386;2022-07-06T01:57:19;97006.81;;;20.82;86.54
8061;BME280;4073;42.626;25.386;2022-07-06T01:59:44;97011.25;;;20.86;85.47
8061;BME280;4073;42.626;25.386;2022-07-06T02:02:10;97012.00;;;20.87;85.01
8061;BME280;4073;42.626;25.386;2022-07-06T02:04:36;97002.03;;;20.91;83.97
8061;BME280;4073;42.626;25.386;2022-07-06T02:07:01;97003.53;;;20.88;83.90
8061;BME280;4073;42.626;25.386;2022-07-06T02:09:27;97003.31;;;20.81;83.98
8061;BME280;4073;42.626;25.386;2022-07-06T02:11:52;97005.78;;;20.62;84.63
8061;BME280;4073;42.626;25.386;2022-07-06T02:14:18;97001.50;;;20.61;84.30
8061;BME280;4073;42.626;25.386;2022-07-06T02:16:43;96998.56;;;20.54;84.33
8061;BME280;4073;42.626;25.386;2022-07-06T02:19:09;96997.53;;;20.47;84.29
8061;BME280;4073;42.626;25.386;2022-07-06T02:21:34;97003.56;;;20.52;84.53
8061;BME280;4073;42.626;25.386;2022-07-06T02:24:00;96993.13;;;20.54;84.25
8061;BME280;4073;42.626;25.386;2022-07-06T02:26:26;96987.03;;;20.57;83.78
8061;BME280;4073;42.626;25.386;2022-07-06T02:28:51;96982.47;;;20.61;83.54
8061;BME280;4073;42.626;25.386;2022-07-06T02:31:17;96978.19;;;20.60;82.83
8061;BME280;4073;42.626;25.386;2022-07-06T02:33:42;96978.63;;;20.62;82.92
8061;BME280;4073;42.626;25.386;2022-07-06T02:36:07;96982.59;;;20.65;82.94
8061;BME280;4073;42.626;25.386;2022-07-06T02:38:33;96980.56;;;20.62;83.02
8061;BME280;4073;42.626;25.386;2022-07-06T02:40:59;96975.56;;;20.64;82.38
8061;BME280;4073;42.626;25.386;2022-07-06T02:43:24;96971.53;;;20.58;82.52
8061;BME280;4073;42.626;25.386;2022-07-06T02:45:50;96961.34;;;20.55;82.66
8061;BME280;4073;42.626;25.386;2022-07-06T02:48:15;96964.16;;;20.58;82.85
8061;BME280;4073;42.626;25.386;2022-07-06T02:50:41;96964.81;;;20.55;83.11
8061;BME280;4073;42.626;25.386;2022-07-06T02:53:06;96965.41;;;20.61;82.70
8061;BME280;4073;42.626;25.386;2022-07-06T02:55:32;96962.56;;;20.69;81.47
8061;BME280;4073;42.626;25.386;2022-07-06T02:57:57;96972.88;;;20.76;81.69
8061;BME280;4073;42.626;25.386;2022-07-06T03:00:23;96970.69;;;20.81;81.52
8061;BME280;4073;42.626;25.386;2022-07-06T03:02:48;96961.66;;;20.77;81.57
8061;BME280;4073;42.626;25.386;2022-07-06T03:05:14;96966.97;;;20.74;81.71
8061;BME280;4073;42.626;25.386;2022-07-06T03:07:39;96959.28;;;20.76;82.00
8061;BME280;4073;42.626;25.386;2022-07-06T03:10:05;96966.84;;;20.82;81.38
8061;BME280;4073;42.626;25.386;2022-07-06T03:12:31;96966.28;;;20.89;81.24
8061;BME280;4073;42.626;25.386;2022-07-06T03:14:56;96967.31;;;20.96;80.79
8061;BME280;4073;42.626;25.386;2022-07-06T03:17:22;96971.28;;;20.99;80.52
8061;BME280;4073;42.626;25.386;2022-07-06T03:19:47;96968.66;;;21.02;80.54
8061;BME280;4073;42.626;25.386;2022-07-06T03:22:13;96969.88;;;21.05;80.57
8061;BME280;4073;42.626;25.386;2022-07-06T03:24:38;96972.50;;;21.01;80.86
8061;BME280;4073;42.626;25.386;2022-07-06T03:27:04;96976.13;;;21.05;79.89
8061;BME280;4073;42.626;25.386;2022-07-06T03:29:29;96975.78;;;21.07;78.29
8061;BME280;4073;42.626;25.386;2022-07-06T03:31:55;96976.13;;;21.05;77.52
8061;BME280;4073;42.626;25.386;2022-07-06T03:34:20;96975.22;;;21.01;77.08
8061;BME280;4073;42.626;25.386;2022-07-06T03:36:46;96967.75;;;21.10;78.18
8061;BME280;4073;42.626;25.386;2022-07-06T03:39:11;96972.84;;;21.12;79.47
8061;BME280;4073;42.626;25.386;2022-07-06T03:41:36;96975.19;;;21.13;80.23
8061;BME280;4073;42.626;25.386;2022-07-06T03:44:02;96978.03;;;21.17;80.29
8061;BME280;4073;42.626;25.386;2022-07-06T03:46:28;96966.13;;;21.21;80.30
8061;BME280;4073;42.626;25.386;2022-07-06T03:48:54;96962.59;;;21.21;80.49
8061;BME280;4073;42.626;25.386;2022-07-06T03:51:19;96961.84;;;21.20;80.58
8061;BME280;4073;42.626;25.386;2022-07-06T03:53:45;96960.88;;;21.28;80.91
8061;BME280;4073;42.626;25.386;2022-07-06T03:56:11;96962.13;;;21.31;80.86
8061;BME280;4073;42.626;25.386;2022-07-06T03:58:56;96958.97;;;21.29;80.19
8061;BME280;4073;42.626;25.386;2022-07-06T04:01:22;96966.88;;;21.34;79.37
8061;BME280;4073;42.626;25.386;2022-07-06T04:03:48;96975.56;;;21.39;79.18
8061;BME280;4073;42.626;25.386;2022-07-06T04:06:13;96968.78;;;21.33;75.53
8061;BME280;4073;42.626;25.386;2022-07-06T04:08:39;96949.88;;;21.37;75.98
8061;BME280;4073;42.626;25.386;2022-07-06T04:11:04;96970.44;;;21.50;75.97
8061;BME280;4073;42.626;25.386;2022-07-06T04:13:30;96963.38;;;21.61;77.67
8061;BME280;4073;42.626;25.386;2022-07-06T04:15:55;96970.56;;;21.69;76.66
8061;BME280;4073;42.626;25.386;2022-07-06T04:18:21;96967.31;;;21.63;73.76
8061;BME280;4073;42.626;25.386;2022-07-06T04:20:46;96975.94;;;21.65;72.67
8061;BME280;4073;42.626;25.386;2022-07-06T04:23:12;96984.31;;;21.72;71.12
8061;BME280;4073;42.626;25.386;2022-07-06T04:25:37;96978.97;;;21.76;72.03
8061;BME280;4073;42.626;25.386;2022-07-06T04:28:03;96978.38;;;21.82;72.15
8061;BME280;4073;42.626;25.386;2022-07-06T04:30:28;96985.16;;;21.88;72.06
8061;BME280;4073;42.626;25.386;2022-07-06T04:32:54;96983.13;;;21.85;72.67
8061;BME280;4073;42.626;25.386;2022-07-06T04:35:20;96982.16;;;21.93;72.72
8061;BME280;4073;42.626;25.386;2022-07-06T04:37:46;96981.72;;;21.91;72.64
8061;BME280;4073;42.626;25.386;2022-07-06T04:40:12;96991.31;;;22.01;72.67
8061;BME280;4073;42.626;25.386;2022-07-06T04:42:37;96989.19;;;22.10;72.09
8061;BME280;4073;42.626;25.386;2022-07-06T04:45:04;96991.75;;;22.18;72.08
8061;BME280;4073;42.626;25.386;2022-07-06T04:47:30;96995.13;;;22.27;71.82
8061;BME280;4073;42.626;25.386;2022-07-06T04:49:55;96989.78;;;22.31;72.00
8061;BME280;4073;42.626;25.386;2022-07-06T04:52:21;96967.00;;;22.23;71.81
8061;BME280;4073;42.626;25.386;2022-07-06T04:54:46;96992.31;;;22.39;72.28
8061;BME280;4073;42.626;25.386;2022-07-06T04:57:11;96992.50;;;22.46;71.82
8061;BME280;4073;42.626;25.386;2022-07-06T04:59:37;96994.63;;;22.53;72.11
8061;BME280;4073;42.626;25.386;2022-07-06T05:02:03;96999.28;;;22.68;72.07
8061;BME280;4073;42.626;25.386;2022-07-06T05:04:28;96996.63;;;22.71;71.36
8061;BME280;4073;42.626;25.386;2022-07-06T05:06:53;97004.56;;;22.77;71.66
8061;BME280;4073;42.626;25.386;2022-07-06T05:09:19;97001.81;;;22.61;72.22
8061;BME280;4073;42.626;25.386;2022-07-06T05:11:44;97004.34;;;22.69;72.35
8061;BME280;4073;42.626;25.386;2022-07-06T05:14:10;97000.66;;;22.77;72.49
8061;BME280;4073;42.626;25.386;2022-07-06T05:16:35;97004.41;;;23.04;71.62
8061;BME280;4073;42.626;25.386;2022-07-06T05:19:01;97009.31;;;23.14;71.14
8061;BME280;4073;42.626;25.386;2022-07-06T05:21:26;97020.63;;;23.32;70.34
8061;BME280;4073;42.626;25.386;2022-07-06T05:23:52;97017.00;;;23.43;70.19
8061;BME280;4073;42.626;25.386;2022-07-06T05:26:17;97023.53;;;23.58;69.72
8061;BME280;4073;42.626;25.386;2022-07-06T05:28:43;97014.91;;;23.75;69.21
8061;BME280;4073;42.626;25.386;2022-07-06T05:31:08;97017.94;;;23.89;68.86
8061;BME280;4073;42.626;25.386;2022-07-06T05:33:34;97015.19;;;24.08;69.11
8061;BME280;4073;42.626;25.386;2022-07-06T05:36:00;97008.53;;;24.28;68.98
8061;BME280;4073;42.626;25.386;2022-07-06T05:38:25;97015.53;;;24.48;68.74
8061;BME280;4073;42.626;25.386;2022-07-06T05:40:51;97022.53;;;24.68;67.68
8061;BME280;4073;42.626;25.386;2022-07-06T05:43:17;97026.09;;;24.94;67.35
8061;BME280;4073;42.626;25.386;2022-07-06T05:45:43;97016.69;;;25.18;66.63
8061;BME280;4073;42.626;25.386;2022-07-06T05:48:08;97025.16;;;25.36;66.27
8061;BME280;4073;42.626;25.386;2022-07-06T05:50:53;97017.28;;;25.60;65.99
8061;BME280;4073;42.626;25.386;2022-07-06T05:53:18;97024.28;;;25.87;64.50
8061;BME280;4073;42.626;25.386;2022-07-06T05:55:44;97024.91;;;26.07;64.00
8061;BME280;4073;42.626;25.386;2022-07-06T05:58:10;97017.25;;;26.23;63.50
8061;BME280;4073;42.626;25.386;2022-07-06T06:00:35;97015.91;;;26.43;62.57
8061;BME280;4073;42.626;25.386;2022-07-06T06:03:01;97024.38;;;26.67;61.62
8061;BME280;4073;42.626;25.386;2022-07-06T06:05:26;97018.63;;;26.86;61.23
8061;BME280;4073;42.626;25.386;2022-07-06T06:07:51;97025.78;;;26.98;59.97
8061;BME280;4073;42.626;25.386;2022-07-06T06:10:19;97027.50;;;27.16;59.31
8061;BME280;4073;42.626;25.386;2022-07-06T06:12:45;97014.63;;;27.24;59.55
8061;BME280;4073;42.626;25.386;2022-07-06T06:15:11;97024.06;;;27.26;60.46
8061;BME280;4073;42.626;25.386;2022-07-06T06:17:37;97015.13;;;27.43;59.82
8061;BME280;4073;42.626;25.386;2022-07-06T06:20:04;97016.78;;;27.59;60.00
8061;BME280;4073;42.626;25.386;2022-07-06T06:22:32;97013.72;;;27.78;58.53
8061;BME280;4073;42.626;25.386;2022-07-06T06:25:08;97011.50;;;28.08;57.33
8061;BME280;4073;42.626;25.386;2022-07-06T06:27:34;97005.25;;;28.14;56.63
8061;BME280;4073;42.626;25.386;2022-07-06T06:29:59;97011.16;;;28.27;56.56
8061;BME280;4073;42.626;25.386;2022-07-06T06:32:24;97021.47;;;28.51;54.28
8061;BME280;4073;42.626;25.386;2022-07-06T06:34:50;97019.50;;;28.55;53.91
8061;BME280;4073;42.626;25.386;2022-07-06T06:37:15;97019.50;;;28.79;53.74
8061;BME280;4073;42.626;25.386;2022-07-06T06:39:41;97019.50;;;29.14;52.80
8061;BME280;4073;42.626;25.386;2022-07-06T06:42:07;97019.88;;;29.34;51.92
8061;BME280;4073;42.626;25.386;2022-07-06T06:44:32;97015.88;;;29.49;51.99
8061;BME280;4073;42.626;25.386;2022-07-06T06:46:57;97016.69;;;29.53;51.73
8061;BME280;4073;42.626;25.386;2022-07-06T06:49:23;97015.16;;;29.34;52.42
8061;BME280;4073;42.626;25.386;2022-07-06T06:51:48;97007.31;;;29.19;53.40
8061;BME280;4073;42.626;25.386;2022-07-06T06:54:14;97011.63;;;28.95;53.47
8061;BME280;4073;42.626;25.386;2022-07-06T06:56:39;97015.97;;;28.93;53.39
8061;BME280;4073;42.626;25.386;2022-07-06T06:59:05;97010.84;;;28.67;54.13
8061;BME280;4073;42.626;25.386;2022-07-06T07:01:30;97010.44;;;28.61;54.29
8061;BME280;4073;42.626;25.386;2022-07-06T07:03:58;97005.69;;;28.34;55.77
8061;BME280;4073;42.626;25.386;2022-07-06T07:06:23;97003.69;;;28.20;55.75
8061;BME280;4073;42.626;25.386;2022-07-06T07:08:48;97012.72;;;28.21;55.95
8061;BME280;4073;42.626;25.386;2022-07-06T07:11:14;97011.19;;;28.34;54.64
8061;BME280;4073;42.626;25.386;2022-07-06T07:13:39;97022.56;;;28.32;54.10
8061;BME280;4073;42.626;25.386;2022-07-06T07:16:05;97021.84;;;28.56;54.37
8061;BME280;4073;42.626;25.386;2022-07-06T07:18:30;97026.97;;;28.75;53.49
8061;BME280;4073;42.626;25.386;2022-07-06T07:20:56;97032.84;;;28.49;53.95
8061;BME280;4073;42.626;25.386;2022-07-06T07:23:21;97030.44;;;28.41;53.61
8061;BME280;4073;42.626;25.386;2022-07-06T07:25:47;97025.31;;;28.32;54.42
8061;BME280;4073;42.626;25.386;2022-07-06T07:28:12;97032.75;;;28.25;54.43
8061;BME280;4073;42.626;25.386;2022-07-06T07:30:38;97028.47;;;28.31;54.88
8061;BME280;4073;42.626;25.386;2022-07-06T07:33:03;97024.97;;;28.44;54.96
8061;BME280;4073;42.626;25.386;2022-07-06T07:35:29;97032.47;;;28.51;54.25
8061;BME280;4073;42.626;25.386;2022-07-06T07:37:54;97024.22;;;28.58;54.82
8061;BME280;4073;42.626;25.386;2022-07-06T07:40:20;97031.69;;;28.78;54.36
8061;BME280;4073;42.626;25.386;2022-07-06T07:42:45;97022.66;;;28.78;53.93
8061;BME280;4073;42.626;25.386;2022-07-06T07:45:11;97022.63;;;28.95;54.36
8061;BME280;4073;42.626;25.386;2022-07-06T07:47:38;97020.28;;;28.94;54.14
8061;BME280;4073;42.626;25.386;2022-07-06T07:50:03;97017.91;;;28.92;54.92
8061;BME280;4073;42.626;25.386;2022-07-06T07:52:29;97018.72;;;28.75;54.75
8061;BME280;4073;42.626;25.386;2022-07-06T07:54:54;97014.78;;;28.87;55.87
8061;BME280;4073;42.626;25.386;2022-07-06T07:57:20;97014.78;;;28.94;55.75
8061;BME280;4073;42.626;25.386;2022-07-06T07:59:45;97019.88;;;28.57;60.29
8061;BME280;4073;42.626;25.386;2022-07-06T08:02:11;97018.31;;;28.49;60.62
8061;BME280;4073;42.626;25.386;2022-07-06T08:04:36;97010.06;;;28.70;58.67
8061;BME280;4073;42.626;25.386;2022-07-06T08:07:02;97004.56;;;29.01;56.14
8061;BME280;4073;42.626;25.386;2022-07-06T08:09:27;97016.31;;;29.37;56.72
8061;BME280;4073;42.626;25.386;2022-07-06T08:11:53;97013.97;;;29.39;55.99
8061;BME280;4073;42.626;25.386;2022-07-06T08:14:18;97015.94;;;29.28;56.52
8061;BME280;4073;42.626;25.386;2022-07-06T08:16:44;97016.75;;;29.14;54.99
8061;BME280;4073;42.626;25.386;2022-07-06T08:19:09;97019.50;;;28.97;56.48
8061;BME280;4073;42.626;25.386;2022-07-06T08:21:39;97019.03;;;28.39;58.07
8061;BME280;4073;42.626;25.386;2022-07-06T08:24:05;97008.97;;;27.64;60.00
8061;BME280;4073;42.626;25.386;2022-07-06T08:26:30;97021.44;;;27.44;62.76
8061;BME280;4073;42.626;25.386;2022-07-06T08:28:56;97025.06;;;27.08;63.47
8061;BME280;4073;42.626;25.386;2022-07-06T08:31:21;97027.94;;;26.75;65.14
8061;BME280;4073;42.626;25.386;2022-07-06T08:33:47;97034.78;;;26.51;65.06
8061;BME280;4073;42.626;25.386;2022-07-06T08:36:14;97024.38;;;26.31;66.49
8061;BME280;4073;42.626;25.386;2022-07-06T08:38:39;97024.34;;;26.27;65.78
8061;BME280;4073;42.626;25.386;2022-07-06T08:41:05;97019.66;;;26.28;67.36
8061;BME280;4073;42.626;25.386;2022-07-06T08:43:34;97024.22;;;26.13;67.20
8061;BME280;4073;42.626;25.386;2022-07-06T08:46:00;97023.84;;;26.15;67.39
8061;BME280;4073;42.626;25.386;2022-07-06T08:48:27;97024.88;;;26.03;69.48
8061;BME280;4073;42.626;25.386;2022-07-06T08:50:55;97030.34;;;26.03;68.29
8061;BME280;4073;42.626;25.386;2022-07-06T08:53:21;97028.81;;;26.06;67.60
8061;BME280;4073;42.626;25.386;2022-07-06T08:55:49;97032.81;;;26.12;68.03
8061;BME280;4073;42.626;25.386;2022-07-06T08:58:15;97031.72;;;26.20;68.17
8061;BME280;4073;42.626;25.386;2022-07-06T09:00:41;97040.97;;;26.45;67.50
8061;BME280;4073;42.626;25.386;2022-07-06T09:03:07;97049.06;;;26.71;67.74
8061;BME280;4073;42.626;25.386;2022-07-06T09:05:36;97053.44;;;26.75;65.65
8061;BME280;4073;42.626;25.386;2022-07-06T09:08:02;97056.19;;;26.79;64.64
8061;BME280;4073;42.626;25.386;2022-07-06T09:10:27;97050.84;;;26.96;63.11
8061;BME280;4073;42.626;25.386;2022-07-06T09:13:01;97045.47;;;27.72;60.51
8061;BME280;4073;42.626;25.386;2022-07-06T09:15:28;97053.19;;;28.34;58.84
8061;BME280;4073;42.626;25.386;2022-07-06T09:17:55;97050.53;;;28.59;58.11
8061;BME280;4073;42.626;25.386;2022-07-06T09:20:22;97042.66;;;28.57;56.13
8061;BME280;4073;42.626;25.386;2022-07-06T09:22:48;97037.13;;;28.43;55.99
8061;BME280;4073;42.626;25.386;2022-07-06T09:25:14;97050.06;;;28.36;56.46
8061;BME280;4073;42.626;25.386;2022-07-06T09:30:09;97052.09;;;28.56;56.25
8061;BME280;4073;42.626;25.386;2022-07-06T09:32:44;97064.69;;;28.71;55.61
8061;BME280;4073;42.626;25.386;2022-07-06T09:37:45;97056.06;;;29.08;54.25
8061;BME280;4073;42.626;25.386;2022-07-06T09:40:17;97054.91;;;28.95;55.15
8061;BME280;4073;42.626;25.386;2022-07-06T09:42:43;97054.47;;;29.00;54.91
8061;BME280;4073;42.626;25.386;2022-07-06T09:45:09;97047.03;;;29.04;54.51
8061;BME280;4073;42.626;25.386;2022-07-06T09:47:34;97041.94;;;29.06;55.35
8061;BME280;4073;42.626;25.386;2022-07-06T09:50:01;97030.88;;;29.34;55.56
8061;BME280;4073;42.626;25.386;2022-07-06T09:52:26;97032.81;;;29.44;55.01
8061;BME280;4073;42.626;25.386;2022-07-06T09:54:52;97034.38;;;29.55;55.14
8061;BME280;4073;42.626;25.386;2022-07-06T09:57:17;97034.06;;;29.29;54.99
8061;BME280;4073;42.626;25.386;2022-07-06T09:59:50;97030.88;;;29.23;55.22
8061;BME280;4073;42.626;25.386;2022-07-06T10:02:17;97019.13;;;28.77;55.73
8061;BME280;4073;42.626;25.386;2022-07-06T10:04:45;97037.97;;;28.75;56.21
8061;BME280;4073;42.626;25.386;2022-07-06T10:07:11;97025.78;;;29.01;56.31
8061;BME280;4073;42.626;25.386;2022-07-06T10:09:37;97026.56;;;29.29;54.54
8061;BME280;4073;42.626;25.386;2022-07-06T10:12:05;97037.59;;;29.33;53.80
8061;BME280;4073;42.626;25.386;2022-07-06T10:14:33;97041.91;;;29.27;54.77
8061;BME280;4073;42.626;25.386;2022-07-06T10:17:01;97032.47;;;29.21;54.79
8061;BME280;4073;42.626;25.386;2022-07-06T10:19:28;97021.47;;;29.07;55.26
8061;BME280;4073;42.626;25.386;2022-07-06T10:21:53;97019.47;;;29.32;54.39
8061;BME280;4073;42.626;25.386;2022-07-06T10:24:20;97020.22;;;29.50;53.66
8061;BME280;4073;42.626;25.386;2022-07-06T10:26:47;97030.81;;;29.69;53.49
8061;BME280;4073;42.626;25.386;2022-07-06T10:29:13;97026.06;;;29.80;53.10
8061;BME280;4073;42.626;25.386;2022-07-06T10:31:48;97037.50;;;29.72;53.34
8061;BME280;4073;42.626;25.386;2022-07-06T10:34:18;97032.44;;;29.45;53.60
8061;BME280;4073;42.626;25.386;2022-07-06T10:36:51;97035.63;;;29.19;53.48
8061;BME280;4073;42.626;25.386;2022-07-06T10:39:35;97024.22;;;29.00;54.03
8061;BME280;4073;42.626;25.386;2022-07-06T10:45:14;97025.00;;;28.83;54.77
8061;BME280;4073;42.626;25.386;2022-07-06T10:47:41;97013.22;;;28.93;53.62
8061;BME280;4073;42.626;25.386;2022-07-06T10:50:07;97021.88;;;28.84;54.23
8061;BME280;4073;42.626;25.386;2022-07-06T10:52:58;97019.09;;;28.91;53.88
8061;BME280;4073;42.626;25.386;2022-07-06T10:55:37;97011.66;;;29.02;53.45
8061;BME280;4073;42.626;25.386;2022-07-06T10:58:04;97010.88;;;29.16;53.72
8061;BME280;4073;42.626;25.386;2022-07-06T11:03:42;97000.66;;;29.06;53.66
8061;BME280;4073;42.626;25.386;2022-07-06T11:06:11;97010.06;;;28.87;53.75
8061;BME280;4073;42.626;25.386;2022-07-06T11:08:51;97012.03;;;28.87;53.91
8061;BME280;4073;42.626;25.386;2022-07-06T11:14:04;97011.63;;;28.74;55.08
8061;BME280;4073;42.626;25.386;2022-07-06T11:16:40;97001.81;;;28.77;55.12
8061;BME280;4073;42.626;25.386;2022-07-06T11:19:26;96997.47;;;28.58;55.28
8061;BME280;4073;42.626;25.386;2022-07-06T11:22:05;97013.59;;;28.53;55.11
8061;BME280;4073;42.626;25.386;2022-07-06T11:24:33;97002.94;;;28.34;55.92
8061;BME280;4073;42.626;25.386;2022-07-06T11:26:59;97002.59;;;28.46;56.12
8061;BME280;4073;42.626;25.386;2022-07-06T11:29:27;96992.00;;;28.55;55.43
8061;BME280;4073;42.626;25.386;2022-07-06T11:31:55;97008.47;;;28.51;55.38
8061;BME280;4073;42.626;25.386;2022-07-06T11:34:26;96997.50;;;28.48;55.37
8061;BME280;4073;42.626;25.386;2022-07-06T11:36:56;96998.63;;;28.43;55.45
8061;BME280;4073;42.626;25.386;2022-07-06T11:39:25;96990.34;;;28.33;55.00
8061;BME280;4073;42.626;25.386;2022-07-06T11:41:51;97001.75;;;28.35;55.33
8061;BME280;4073;42.626;25.386;2022-07-06T11:44:17;96999.38;;;28.30;55.42
8061;BME280;4073;42.626;25.386;2022-07-06T11:46:42;96997.41;;;28.30;54.90
8061;BME280;4073;42.626;25.386;2022-07-06T11:49:09;96995.81;;;28.19;55.42
8061;BME280;4073;42.626;25.386;2022-07-06T11:51:36;96989.53;;;28.18;55.43
8061;BME280;4073;42.626;25.386;2022-07-06T11:54:11;97000.50;;;28.04;55.45
8061;BME280;4073;42.626;25.386;2022-07-06T11:56:38;96994.44;;;27.67;56.50
8061;BME280;4073;42.626;25.386;2022-07-06T11:59:10;96993.25;;;27.54;56.26
8061;BME280;4073;42.626;25.386;2022-07-06T12:01:36;96995.97;;;27.54;56.43
8061;BME280;4073;42.626;25.386;2022-07-06T12:04:07;96993.97;;;27.48;56.52
8061;BME280;4073;42.626;25.386;2022-07-06T12:06:32;96994.31;;;27.35;56.50
8061;BME280;4073;42.626;25.386;2022-07-06T12:08:59;96995.81;;;27.22;57.03
8061;BME280;4073;42.626;25.386;2022-07-06T12:11:30;96985.81;;;27.00;57.55
8061;BME280;4073;42.626;25.386;2022-07-06T12:13:58;96998.72;;;26.96;57.42
8061;BME280;4073;42.626;25.386;2022-07-06T12:16:35;96995.13;;;26.89;57.34
8061;BME280;4073;42.626;25.386;2022-07-06T12:19:04;96989.25;;;26.87;57.92
8061;BME280;4073;42.626;25.386;2022-07-06T12:21:30;96997.88;;;26.85;58.14
8061;BME280;4073;42.626;25.386;2022-07-06T12:23:57;97000.34;;;27.01;57.95
8061;BME280;4073;42.626;25.386;2022-07-06T12:26:25;96996.84;;;27.04;57.83
8061;BME280;4073;42.626;25.386;2022-07-06T12:29:23;96996.75;;;26.93;57.48
8061;BME280;4073;42.626;25.386;2022-07-06T12:31:54;96996.41;;;27.02;57.64
8061;BME280;4073;42.626;25.386;2022-07-06T12:34:25;96999.16;;;26.98;57.79
8061;BME280;4073;42.626;25.386;2022-07-06T12:36:52;96991.63;;;26.88;58.03
8061;BME280;4073;42.626;25.386;2022-07-06T12:39:23;96989.59;;;26.78;57.38
8061;BME280;4073;42.626;25.386;2022-07-06T12:44:17;96982.50;;;26.74;58.49
8061;BME280;4073;42.626;25.386;2022-07-06T12:46:43;96982.06;;;26.68;58.24
8061;BME280;4073;42.626;25.386;2022-07-06T12:49:14;96980.47;;;26.64;58.86
8061;BME280;4073;42.626;25.386;2022-07-06T12:51:54;96972.16;;;26.57;59.71
8061;BME280;4073;42.626;25.386;2022-07-06T12:54:21;96967.03;;;26.52;60.08
8061;BME280;4073;42.626;25.386;2022-07-06T12:59:33;96958.09;;;26.62;60.54
8061;BME280;4073;42.626;25.386;2022-07-06T13:02:00;96963.69;;;26.72;60.35
8061;BME280;4073;42.626;25.386;2022-07-06T13:04:27;96975.56;;;26.90;60.02
8061;BME280;4073;42.626;25.386;2022-07-06T13:06:53;96964.28;;;27.06;59.39
8061;BME280;4073;42.626;25.386;2022-07-06T13:09:20;96962.78;;;27.08;58.81
8061;BME280;4073;42.626;25.386;2022-07-06T13:11:47;96957.66;;;27.10;58.39
8061;BME280;4073;42.626;25.386;2022-07-06T13:14:17;96958.53;;;27.21;57.80
8061;BME280;4073;42.626;25.386;2022-07-06T13:16:45;96950.78;;;27.34;57.21
8061;BME280;4073;42.626;25.386;2022-07-06T13:19:11;96957.19;;;27.66;57.07
8061;BME280;4073;42.626;25.386;2022-07-06T13:21:36;96951.41;;;28.03;55.24
8061;BME280;4073;42.626;25.386;2022-07-06T13:24:03;96953.44;;;28.34;53.85
8061;BME280;4073;42.626;25.386;2022-07-06T13:26:28;96950.75;;;28.55;52.99